createdAt,value
2023-04-09T00:01:30.621Z,14.02
2023-04-09T00:03:57.401Z,14.57
2023-04-09T00:06:23.988Z,14.60
2023-04-09T00:08:50.724Z,14.07
2023-04-09T00:11:17.352Z,14.73
2023-04-09T00:13:43.757Z,15.98
2023-04-09T00:16:10.311Z,15.60
2023-04-09T00:18:36.912Z,14.15
2023-04-09T00:21:03.457Z,13.73
2023-04-09T00:23:29.926Z,15.00
2023-04-09T00:25:56.404Z,13.80
2023-04-09T00:28:22.904Z,14.27
2023-04-09T00:30:49.300Z,14.23
2023-04-09T00:33:15.765Z,15.30
2023-04-09T00:35:42.246Z,15.18
2023-04-09T00:38:08.693Z,13.80
2023-04-09T00:40:35.439Z,13.87
2023-04-09T00:43:02.427Z,14.85
2023-04-09T00:45:29.138Z,15.15
2023-04-09T00:47:56.770Z,15.25
2023-04-09T00:50:23.265Z,14.55
2023-04-09T00:52:49.676Z,15.37
2023-04-09T00:55:16.948Z,14.43
2023-04-09T00:57:43.463Z,15.63
2023-04-09T01:00:11.371Z,15.23
2023-04-09T01:02:38.363Z,14.65
2023-04-09T01:05:06.098Z,15.37
2023-04-09T01:07:54.202Z,14.40
2023-04-09T01:10:41.156Z,15.57
2023-04-09T01:13:13.736Z,13.55
2023-04-09T01:15:47.248Z,14.05
2023-04-09T01:18:22.142Z,14.37
2023-04-09T01:21:02.698Z,13.63
2023-04-09T01:23:54.697Z,14.35
2023-04-09T01:26:45.835Z,14.07
2023-04-09T01:29:13.238Z,14.13
2023-04-09T01:31:43.164Z,13.93
2023-04-09T01:34:11.507Z,13.68
2023-04-09T01:36:40.410Z,13.68
2023-04-09T01:39:07.649Z,14.05
2023-04-09T01:41:35.467Z,13.60
2023-04-09T01:44:03.966Z,14.13
2023-04-09T01:46:32.241Z,14.82
2023-04-09T01:48:59.293Z,14.73
2023-04-09T01:51:27.336Z,14.30
2023-04-09T01:53:54.193Z,15.88
2023-04-09T01:56:21.302Z,14.63
2023-04-09T01:58:48.361Z,14.35
2023-04-09T02:01:35.970Z,15.60
2023-04-09T02:04:05.255Z,14.48
2023-04-09T02:06:44.285Z,15.20
2023-04-09T02:09:12.452Z,15.13
2023-04-09T02:11:42.356Z,15.25
2023-04-09T02:14:11.615Z,15.98
2023-04-09T02:16:39.030Z,14.88
2023-04-09T02:19:05.625Z,15.38
2023-04-09T02:21:32.189Z,14.60
2023-04-09T02:23:58.688Z,14.57
2023-04-09T02:26:25.379Z,14.40
2023-04-09T02:28:52.075Z,13.43
2023-04-09T02:31:18.715Z,14.75
2023-04-09T02:33:45.302Z,14.47
2023-04-09T02:36:13.015Z,15.07
2023-04-09T02:38:43.217Z,16.05
2023-04-09T02:41:10.316Z,15.98
2023-04-09T02:43:36.937Z,17.10
2023-04-09T02:46:04.549Z,14.80
2023-04-09T02:48:30.981Z,15.88
2023-04-09T02:50:57.418Z,15.50
2023-04-09T02:53:23.962Z,15.73
2023-04-09T02:55:50.481Z,15.65
2023-04-09T02:58:16.965Z,17.10
2023-04-09T03:00:43.368Z,15.93
2023-04-09T03:03:10.001Z,15.35
2023-04-09T03:05:36.785Z,16.23
2023-04-09T03:08:04.005Z,15.10
2023-04-09T03:10:30.536Z,16.13
2023-04-09T03:12:57.027Z,14.40
2023-04-09T03:15:23.548Z,15.38
2023-04-09T03:17:49.955Z,14.45
2023-04-09T03:20:16.394Z,15.23
2023-04-09T03:22:42.798Z,15.63
2023-04-09T03:25:09.723Z,14.57
2023-04-09T03:27:36.315Z,14.48
2023-04-09T03:30:03.298Z,13.88
2023-04-09T03:32:29.693Z,15.00
2023-04-09T03:34:56.102Z,14.97
2023-04-09T03:37:22.557Z,14.20
2023-04-09T03:39:48.928Z,15.48
2023-04-09T03:42:15.433Z,14.35
2023-04-09T03:44:41.833Z,14.85
2023-04-09T03:47:08.248Z,14.33
2023-04-09T03:49:35.835Z,13.77
2023-04-09T03:52:02.520Z,13.93
2023-04-09T03:54:29.998Z,13.95
2023-04-09T03:56:57.147Z,13.93
2023-04-09T03:59:24.289Z,13.60
2023-04-09T04:01:50.808Z,14.07
2023-04-09T04:04:17.786Z,13.75
2023-04-09T04:06:44.401Z,14.05
2023-04-09T04:09:10.805Z,13.60
2023-04-09T04:11:37.562Z,14.10
2023-04-09T04:14:04.610Z,13.95
2023-04-09T04:16:31.113Z,14.18
2023-04-09T04:18:57.652Z,14.07
2023-04-09T04:21:24.077Z,13.70
2023-04-09T04:23:50.579Z,15.30
2023-04-09T04:26:16.929Z,14.02
2023-04-09T04:28:43.349Z,14.25
2023-04-09T04:31:13.108Z,14.38
2023-04-09T04:33:41.409Z,14.48
2023-04-09T04:36:09.829Z,13.83
2023-04-09T04:38:36.935Z,13.48
2023-04-09T04:41:04.102Z,13.60
2023-04-09T04:43:30.878Z,14.07
2023-04-09T04:45:57.367Z,14.65
2023-04-09T04:48:24.146Z,13.30
2023-04-09T04:51:01.823Z,13.52
2023-04-09T04:53:28.439Z,14.05
2023-04-09T04:55:55.045Z,14.30
2023-04-09T04:58:21.532Z,13.88
2023-04-09T05:00:48.087Z,13.47
2023-04-09T05:03:14.845Z,13.40
2023-04-09T05:05:41.457Z,13.68
2023-04-09T05:08:08.145Z,13.63
2023-04-09T05:10:34.630Z,13.70
2023-04-09T05:13:01.063Z,13.73
2023-04-09T05:15:27.600Z,14.38
2023-04-09T05:17:54.378Z,14.18
2023-04-09T05:20:20.822Z,14.85
2023-04-09T05:22:47.287Z,13.65
2023-04-09T05:25:15.997Z,14.33
2023-04-09T05:27:42.703Z,13.75
2023-04-09T05:30:09.431Z,14.30
2023-04-09T05:32:35.959Z,13.77
2023-04-09T05:35:02.484Z,14.82
2023-04-09T05:37:28.877Z,14.40
2023-04-09T05:39:56.840Z,14.85
2023-04-09T05:42:23.244Z,14.73
2023-04-09T05:44:49.612Z,14.45
2023-04-09T05:47:16.282Z,16.23
2023-04-09T05:49:42.741Z,16.07
2023-04-09T05:52:09.132Z,16.67
2023-04-09T05:54:35.523Z,16.80
2023-04-09T05:57:01.944Z,16.00
2023-04-09T05:59:28.379Z,16.88
2023-04-09T06:01:54.759Z,17.33
2023-04-09T06:04:21.553Z,16.58
2023-04-09T06:06:48.128Z,17.10
2023-04-09T06:09:14.524Z,17.55
2023-04-09T06:11:41.117Z,17.15
2023-04-09T06:14:07.943Z,17.90
2023-04-09T06:16:34.877Z,18.05
2023-04-09T06:19:01.344Z,17.15
2023-04-09T06:21:27.912Z,17.75
2023-04-09T06:23:54.626Z,17.90
2023-04-09T06:26:21.490Z,16.90
2023-04-09T06:28:48.058Z,15.88
2023-04-09T06:31:14.619Z,14.93
2023-04-09T06:33:41.240Z,13.90
2023-04-09T06:36:08.127Z,14.45
2023-04-09T06:38:34.569Z,15.93
2023-04-09T06:41:01.209Z,14.10
2023-04-09T06:43:27.751Z,15.75
2023-04-09T06:45:54.178Z,13.70
2023-04-09T06:48:20.766Z,13.80
2023-04-09T06:50:47.347Z,14.23
2023-04-09T06:53:15.107Z,12.43
2023-04-09T06:55:42.007Z,13.48
2023-04-09T06:58:09.282Z,12.75
2023-04-09T07:00:36.536Z,12.40
2023-04-09T07:03:05.381Z,12.83
2023-04-09T07:05:32.060Z,13.55
2023-04-09T07:07:58.544Z,12.30
2023-04-09T07:10:25.217Z,13.07
2023-04-09T07:12:51.809Z,12.70
2023-04-09T07:15:18.264Z,13.30
2023-04-09T07:17:44.885Z,12.27
2023-04-09T07:20:11.856Z,12.80
2023-04-09T07:22:39.510Z,12.35
2023-04-09T07:25:06.670Z,13.50
2023-04-09T07:27:33.248Z,12.40
2023-04-09T07:29:59.974Z,10.80
2023-04-09T07:32:28.129Z,11.68
2023-04-09T07:34:55.387Z,11.43
2023-04-09T07:37:22.013Z,10.68
2023-04-09T07:39:49.651Z,10.73
2023-04-09T07:42:16.126Z,12.00
2023-04-09T07:44:43.772Z,10.65
2023-04-09T07:47:11.298Z,12.02
2023-04-09T07:49:38.105Z,12.10
2023-04-09T07:52:05.797Z,11.90
2023-04-09T07:54:33.021Z,12.25
2023-04-09T07:56:59.969Z,11.48
2023-04-09T07:59:27.605Z,11.43
2023-04-09T08:01:54.267Z,10.93
2023-04-09T08:04:21.292Z,12.03
2023-04-09T08:06:50.647Z,12.43
2023-04-09T08:09:18.614Z,11.65
2023-04-09T08:11:48.398Z,11.88
2023-04-09T08:14:16.501Z,11.85
2023-04-09T08:16:45.043Z,12.53
2023-04-09T08:19:12.328Z,12.73
2023-04-09T08:21:46.119Z,12.10
2023-04-09T08:24:12.625Z,12.00
2023-04-09T08:26:39.920Z,12.80
2023-04-09T08:29:07.703Z,12.00
2023-04-09T08:31:35.173Z,13.32
2023-04-09T08:34:01.584Z,12.80
2023-04-09T08:36:28.371Z,13.70
2023-04-09T08:38:56.473Z,13.13
2023-04-09T08:41:25.803Z,13.37
2023-04-09T08:43:58.141Z,12.57
2023-04-09T08:46:26.112Z,12.90
2023-04-09T08:48:53.460Z,14.38
2023-04-09T08:51:22.324Z,14.38
2023-04-09T08:53:53.391Z,13.20
2023-04-09T08:56:21.919Z,12.80
2023-04-09T08:58:48.527Z,15.43
2023-04-09T09:01:27.069Z,13.93
2023-04-09T09:04:05.476Z,13.70
2023-04-09T09:06:34.131Z,14.00
2023-04-09T09:09:17.060Z,14.27
2023-04-09T09:11:45.769Z,15.07
2023-04-09T09:14:15.321Z,14.32
2023-04-09T09:16:44.641Z,14.82
2023-04-09T09:19:30.387Z,15.87
2023-04-09T09:22:02.696Z,15.75
2023-04-09T09:24:30.723Z,15.75
2023-04-09T09:26:58.736Z,15.95
2023-04-09T09:29:25.951Z,15.73
2023-04-09T09:31:54.040Z,16.00
2023-04-09T09:34:22.054Z,14.68
2023-04-09T09:36:48.957Z,16.27
2023-04-09T09:39:17.676Z,14.13
2023-04-09T09:41:45.959Z,14.43
2023-04-09T09:44:30.009Z,14.67
2023-04-09T09:46:57.501Z,14.18
2023-04-09T09:49:23.929Z,14.63
2023-04-09T09:51:53.283Z,17.92
2023-04-09T09:54:23.514Z,14.05
2023-04-09T09:56:52.931Z,14.33
2023-04-09T09:59:19.287Z,14.52
2023-04-09T10:01:47.782Z,13.65
2023-04-09T10:04:16.397Z,14.10
2023-04-09T10:06:48.129Z,13.70
2023-04-09T10:09:14.982Z,12.80
2023-04-09T10:11:43.831Z,12.73
2023-04-09T10:14:10.522Z,13.85
2023-04-09T10:16:37.483Z,12.90
2023-04-09T10:19:04.939Z,12.30
2023-04-09T10:21:47.737Z,11.77
2023-04-09T10:24:15.909Z,11.27
2023-04-09T10:26:45.018Z,11.88
2023-04-09T10:29:16.569Z,12.23
2023-04-09T10:31:52.198Z,12.35
2023-04-09T10:34:21.810Z,11.80
2023-04-09T10:36:53.492Z,11.95
2023-04-09T10:39:20.545Z,12.52
2023-04-09T10:41:48.843Z,13.07
2023-04-09T10:44:28.336Z,12.45
2023-04-09T10:46:55.720Z,11.27
2023-04-09T10:49:24.291Z,11.77
2023-04-09T10:52:13.849Z,11.07
2023-04-09T10:54:47.383Z,12.00
2023-04-09T10:57:19.022Z,11.32
2023-04-09T10:59:51.405Z,11.20
2023-04-09T11:02:40.246Z,10.82
2023-04-09T11:05:31.169Z,11.15
2023-04-09T11:08:04.456Z,11.13
2023-04-09T11:10:34.395Z,9.63
2023-04-09T11:13:02.404Z,9.40
2023-04-09T11:15:29.666Z,9.05
2023-04-09T11:17:57.618Z,8.80
2023-04-09T11:20:25.978Z,8.57
2023-04-09T11:22:57.009Z,7.93
2023-04-09T11:25:26.483Z,8.30
2023-04-09T11:27:53.611Z,7.82
2023-04-09T11:30:20.373Z,7.40
2023-04-09T11:32:48.176Z,7.30
2023-04-09T11:35:23.742Z,7.35
2023-04-09T11:37:52.198Z,7.13
2023-04-09T11:40:20.952Z,6.97
2023-04-09T11:42:55.431Z,6.88
2023-04-09T11:45:29.601Z,7.07
2023-04-09T11:47:56.954Z,6.82
2023-04-09T11:50:23.761Z,5.93
2023-04-09T11:52:50.556Z,6.85
2023-04-09T11:55:28.372Z,6.80
2023-04-09T11:58:01.169Z,6.45
2023-04-09T12:00:28.844Z,6.50
2023-04-09T12:03:04.630Z,6.43
2023-04-09T12:05:33.566Z,6.80
2023-04-09T12:08:02.258Z,6.35
2023-04-09T12:10:30.746Z,5.57
2023-04-09T12:13:06.325Z,6.10
2023-04-09T12:15:35.533Z,5.63
2023-04-09T12:18:02.273Z,5.45
2023-04-09T12:20:40.674Z,6.55
2023-04-09T12:23:08.726Z,6.10
2023-04-09T12:25:41.177Z,5.78
2023-04-09T12:28:09.812Z,5.93
2023-04-09T12:30:36.605Z,5.00
2023-04-09T12:33:04.543Z,5.90
2023-04-09T12:35:31.906Z,5.10
2023-04-09T12:37:59.408Z,5.28
2023-04-09T12:40:26.677Z,6.27
2023-04-09T12:42:53.792Z,6.40
2023-04-09T12:45:21.169Z,6.40
2023-04-09T12:47:48.113Z,6.18
2023-04-09T12:50:16.109Z,6.53
2023-04-09T12:52:43.092Z,5.63
2023-04-09T12:55:10.621Z,5.53
2023-04-09T12:57:38.598Z,6.57
2023-04-09T13:00:07.513Z,6.03
2023-04-09T13:02:34.836Z,6.35
2023-04-09T13:05:01.705Z,6.43
2023-04-09T13:07:29.477Z,7.00
2023-04-09T13:09:57.226Z,6.43
2023-04-09T13:12:24.336Z,6.03
2023-04-09T13:14:53.690Z,5.82
2023-04-09T13:17:20.241Z,6.23
2023-04-09T13:19:47.468Z,6.20
2023-04-09T13:22:14.424Z,6.13
2023-04-09T13:24:41.062Z,5.78
2023-04-09T13:27:11.113Z,6.40
2023-04-09T13:29:38.254Z,6.30
2023-04-09T13:32:07.582Z,5.88
2023-04-09T13:34:35.572Z,6.68
2023-04-09T13:37:03.307Z,5.80
2023-04-09T13:39:29.785Z,6.68
2023-04-09T13:41:56.790Z,5.87
2023-04-09T13:44:24.906Z,6.30
2023-04-09T13:46:51.618Z,6.75
2023-04-09T13:49:18.320Z,6.03
2023-04-09T13:51:45.330Z,6.07
2023-04-09T13:54:11.962Z,6.40
2023-04-09T13:56:39.662Z,6.60
2023-04-09T13:59:06.578Z,6.53
2023-04-09T14:01:34.391Z,5.75
2023-04-09T14:04:01.017Z,5.15
2023-04-09T14:06:28.033Z,5.63
2023-04-09T14:08:55.104Z,6.45
2023-04-09T14:11:21.812Z,5.03
2023-04-09T14:13:51.617Z,5.07
2023-04-09T14:16:19.769Z,5.53
2023-04-09T14:18:46.385Z,5.60
2023-04-09T14:21:13.024Z,5.40
2023-04-09T14:23:39.997Z,5.93
2023-04-09T14:26:07.421Z,5.65
2023-04-09T14:28:33.913Z,5.80
2023-04-09T14:31:00.679Z,6.37
2023-04-09T14:33:27.446Z,6.40
2023-04-09T14:35:53.993Z,6.30
2023-04-09T14:38:20.601Z,5.90
2023-04-09T14:40:47.409Z,5.32
2023-04-09T14:43:13.858Z,6.33
2023-04-09T14:45:40.381Z,6.10
2023-04-09T14:48:08.296Z,6.10
2023-04-09T14:50:36.609Z,6.38
2023-04-09T14:53:04.078Z,6.93
2023-04-09T14:55:30.855Z,6.77
2023-04-09T14:57:59.564Z,5.97
2023-04-09T15:00:26.021Z,6.95
2023-04-09T15:02:52.799Z,6.15
2023-04-09T15:05:19.472Z,5.90
2023-04-09T15:07:46.158Z,6.50
2023-04-09T15:10:12.856Z,6.57
2023-04-09T15:12:39.303Z,5.78
2023-04-09T15:15:07.430Z,5.95
2023-04-09T15:17:34.224Z,5.70
2023-04-09T15:20:00.671Z,5.43
2023-04-09T15:22:27.131Z,5.70
2023-04-09T15:24:53.857Z,5.95
2023-04-09T15:27:20.395Z,6.43
2023-04-09T15:29:47.109Z,6.47
2023-04-09T15:32:13.699Z,6.47
2023-04-09T15:34:40.411Z,6.32
2023-04-09T15:37:06.864Z,6.45
2023-04-09T15:39:34.011Z,6.57
2023-04-09T15:42:01.832Z,5.20
2023-04-09T15:44:28.740Z,5.83
2023-04-09T15:46:56.045Z,5.82
2023-04-09T15:49:23.127Z,5.57
2023-04-09T15:51:49.729Z,5.15
2023-04-09T15:54:16.246Z,5.82
2023-04-09T15:56:42.813Z,5.53
2023-04-09T15:59:09.631Z,4.90
2023-04-09T16:01:36.636Z,5.68
2023-04-09T16:04:04.980Z,5.25
2023-04-09T16:06:31.908Z,5.85
2023-04-09T16:08:58.460Z,5.37
2023-04-09T16:11:25.070Z,5.70
2023-04-09T16:13:52.357Z,5.38
2023-04-09T16:16:19.064Z,5.72
2023-04-09T16:18:45.627Z,5.28
2023-04-09T16:21:12.635Z,4.97
2023-04-09T16:23:39.688Z,5.60
2023-04-09T16:26:06.944Z,4.85
2023-04-09T16:28:33.413Z,5.60
2023-04-09T16:30:59.951Z,5.28
2023-04-09T16:33:26.513Z,5.10
2023-04-09T16:35:53.133Z,4.60
2023-04-09T16:38:19.893Z,6.15
2023-04-09T16:40:46.632Z,5.40
2023-04-09T16:43:13.082Z,5.78
2023-04-09T16:45:39.594Z,5.87
2023-04-09T16:48:11.383Z,6.25
2023-04-09T16:50:39.634Z,6.60
2023-04-09T16:53:06.494Z,6.60
2023-04-09T16:55:33.103Z,6.13
2023-04-09T16:57:59.659Z,6.10
2023-04-09T17:00:27.369Z,6.63
2023-04-09T17:02:55.692Z,5.88
2023-04-09T17:05:22.808Z,6.38
2023-04-09T17:07:49.276Z,6.32
2023-04-09T17:10:15.770Z,6.07
2023-04-09T17:12:42.748Z,5.80
2023-04-09T17:15:10.033Z,5.57
2023-04-09T17:17:37.567Z,6.72
2023-04-09T17:20:04.511Z,6.18
2023-04-09T17:22:31.041Z,5.97
2023-04-09T17:24:57.664Z,7.18
2023-04-09T17:27:24.092Z,5.80
2023-04-09T17:29:50.731Z,6.97
2023-04-09T17:32:17.294Z,6.07
2023-04-09T17:34:47.312Z,7.17
2023-04-09T17:37:13.847Z,6.88
2023-04-09T17:39:40.971Z,6.20
2023-04-09T17:42:07.686Z,6.13
2023-04-09T17:44:35.452Z,6.00
2023-04-09T17:47:05.105Z,6.07
2023-04-09T17:49:32.342Z,5.90
2023-04-09T17:52:09.223Z,6.63
2023-04-09T17:54:38.984Z,7.22
2023-04-09T17:57:07.529Z,7.05
2023-04-09T17:59:34.632Z,6.73
2023-04-09T18:02:01.334Z,6.55
2023-04-09T18:04:28.029Z,6.28
2023-04-09T18:06:55.413Z,6.32
2023-04-09T18:09:21.959Z,5.82
2023-04-09T18:11:48.992Z,5.67
2023-04-09T18:14:15.555Z,7.13
2023-04-09T18:16:42.055Z,7.68
2023-04-09T18:19:08.641Z,7.85
2023-04-09T18:21:37.890Z,7.80
2023-04-09T18:24:05.255Z,9.10
2023-04-09T18:26:33.770Z,9.00
2023-04-09T18:29:01.369Z,8.25
2023-04-09T18:31:28.594Z,8.10
2023-04-09T18:33:55.228Z,7.68
2023-04-09T18:36:22.247Z,6.73
2023-04-09T18:38:48.859Z,6.43
2023-04-09T18:41:25.994Z,6.70
2023-04-09T18:43:52.967Z,7.60
2023-04-09T18:46:19.555Z,8.70
2023-04-09T18:48:48.914Z,7.50
2023-04-09T18:51:15.570Z,9.00
2023-04-09T18:53:42.299Z,8.95
2023-04-09T18:56:09.337Z,8.85
2023-04-09T18:58:36.423Z,7.93
2023-04-09T19:01:12.438Z,9.53
2023-04-09T19:03:40.177Z,9.27
2023-04-09T19:06:12.255Z,8.95
2023-04-09T19:08:39.011Z,8.55
2023-04-09T19:11:06.544Z,9.32
2023-04-09T19:13:33.220Z,7.97
2023-04-09T19:15:59.842Z,11.05
2023-04-09T19:18:26.703Z,12.07
2023-04-09T19:20:53.239Z,9.07
2023-04-09T19:23:20.244Z,9.60
2023-04-09T19:25:55.072Z,10.90
2023-04-09T19:28:22.341Z,10.32
2023-04-09T19:30:52.229Z,8.00
2023-04-09T19:33:20.569Z,6.90
2023-04-09T19:35:51.433Z,7.75
2023-04-09T19:38:19.204Z,7.37
2023-04-09T19:40:45.909Z,7.28
2023-04-09T19:43:12.637Z,6.72
2023-04-09T19:45:39.873Z,6.32
2023-04-09T19:48:07.087Z,7.07
2023-04-09T19:50:38.905Z,6.80
2023-04-09T19:53:06.145Z,6.72
2023-04-09T19:55:36.205Z,6.80
2023-04-09T19:58:03.225Z,7.82
2023-04-09T20:00:29.788Z,14.90
2023-04-09T20:02:57.236Z,50.70
2023-04-09T20:05:24.019Z,33.30
2023-04-09T20:07:51.551Z,27.25
2023-04-09T20:10:18.453Z,25.83
2023-04-09T20:12:49.245Z,16.73
2023-04-09T20:15:17.521Z,18.73
2023-04-09T20:17:44.037Z,15.43
2023-04-09T20:20:11.668Z,10.63
2023-04-09T20:22:43.020Z,10.35
2023-04-09T20:25:12.690Z,9.20
2023-04-09T20:27:39.388Z,8.10
2023-04-09T20:30:07.304Z,7.30
2023-04-09T20:32:36.325Z,7.78
2023-04-09T20:35:03.056Z,7.80
2023-04-09T20:37:29.473Z,7.03
2023-04-09T20:39:56.032Z,7.10
2023-04-09T20:42:22.637Z,6.57
2023-04-09T20:44:49.650Z,6.85
2023-04-09T20:47:16.307Z,8.50
2023-04-09T20:49:43.085Z,7.43
2023-04-09T20:52:09.893Z,7.97
2023-04-09T20:54:36.342Z,7.95
2023-04-09T20:57:05.558Z,10.65
2023-04-09T20:59:32.155Z,10.77
2023-04-09T21:01:58.718Z,10.07
2023-04-09T21:04:26.100Z,8.97
2023-04-09T21:06:52.874Z,8.18
2023-04-09T21:09:19.253Z,9.00
2023-04-09T21:11:46.093Z,7.80
2023-04-09T21:14:14.473Z,7.75
2023-04-09T21:16:41.201Z,7.93
2023-04-09T21:19:07.708Z,8.25
2023-04-09T21:21:34.774Z,9.43
2023-04-09T21:24:01.614Z,8.25
2023-04-09T21:26:35.787Z,8.35
2023-04-09T21:29:11.621Z,8.27
2023-04-09T21:31:38.075Z,8.77
2023-04-09T21:34:04.548Z,9.40
2023-04-09T21:36:34.593Z,9.23
2023-04-09T21:39:01.510Z,9.27
2023-04-09T21:41:28.235Z,9.73
2023-04-09T21:43:54.626Z,8.55
2023-04-09T21:46:21.899Z,9.20
2023-04-09T21:48:48.400Z,8.35
2023-04-09T21:51:14.921Z,9.00
2023-04-09T21:53:41.484Z,8.90
2023-04-09T21:56:08.013Z,8.55
2023-04-09T21:58:34.497Z,8.68
2023-04-09T22:01:00.896Z,8.10
2023-04-09T22:03:27.728Z,8.07
2023-04-09T22:05:54.458Z,9.30
2023-04-09T22:08:20.974Z,9.90
2023-04-09T22:10:47.502Z,9.25
2023-04-09T22:13:13.857Z,8.43
2023-04-09T22:15:41.892Z,9.25
2023-04-09T22:18:08.466Z,8.63
2023-04-09T22:20:36.323Z,11.57
2023-04-09T22:23:03.045Z,9.73
2023-04-09T22:25:34.796Z,7.78
2023-04-09T22:28:01.456Z,8.38
2023-04-09T22:30:28.046Z,8.87
2023-04-09T22:32:54.470Z,8.90
2023-04-09T22:35:21.098Z,9.25
2023-04-09T22:37:47.525Z,9.27
2023-04-09T22:40:15.451Z,8.85
2023-04-09T22:42:43.214Z,9.17
2023-04-09T22:45:11.201Z,9.23
2023-04-09T22:47:38.726Z,9.25
2023-04-09T22:50:06.998Z,9.23
2023-04-09T22:52:33.527Z,9.68
2023-04-09T22:54:59.936Z,9.20
2023-04-09T22:57:26.337Z,9.68
2023-04-09T22:59:52.718Z,9.68
2023-04-09T23:02:19.446Z,9.57
2023-04-09T23:04:46.020Z,8.93
2023-04-09T23:07:12.561Z,8.67
2023-04-09T23:09:38.925Z,8.65
2023-04-09T23:12:05.332Z,8.60
2023-04-09T23:14:31.733Z,8.50
2023-04-09T23:16:58.230Z,8.90
2023-04-09T23:19:24.585Z,8.80
2023-04-09T23:21:51.336Z,9.60
2023-04-09T23:24:19.145Z,9.45
2023-04-09T23:26:45.650Z,9.13
2023-04-09T23:29:12.009Z,10.13
2023-04-09T23:31:38.367Z,8.57
2023-04-09T23:34:04.756Z,9.70
2023-04-09T23:36:31.566Z,10.25
2023-04-09T23:38:58.046Z,9.43
2023-04-09T23:41:24.436Z,9.82
2023-04-09T23:43:51.316Z,10.93
2023-04-09T23:46:17.967Z,9.80
2023-04-09T23:48:44.334Z,10.70
2023-04-09T23:51:17.345Z,10.75
2023-04-09T23:53:43.886Z,8.98
2023-04-09T23:56:10.731Z,8.93
2023-04-09T23:58:37.299Z,9.65
